Stations météo

Publicité
Mt. St.Vincent, France (7382): Température de l'air & dewpoint: 20.06.2019 19:00:00 - 26.06.2019 19:00:00 (CEST)Mt. St.Vincent, France (7382): Vitesse du vent & gusts: 20.06.2019 19:00:00 - 26.06.2019 19:00:00 (CEST)Mt. St.Vincent, France (7382): Direction du vent: 20.06.2019 19:00:00 - 26.06.2019 19:00:00 (CEST)Mt. St.Vincent, France (7382): Ensoleillement: 20.06.2019 19:00:00 - 26.06.2019 19:00:00 (CEST)Mt. St.Vincent, France (7382): Quantités de précipitations: 20.06.2019 19:00:00 - 26.06.2019 19:00:00 (CEST)
Date & Time tt [°C] td [°C] ff [km/h] ff [knt] fx [km/h] fx [knt] dd sd [min] rr [mm]
26.06.2019 19:00:00 31,3 17,6 18 10 26 14 E 60 0,0
26.06.2019 18:00:00 32,5 15,5 16 9 26 14 ESE 60 0,0
26.06.2019 17:00:00 32,9 16,7 15 8 26 14 ESE 60 0,0
26.06.2019 16:00:00 32,9 17,5 13 7 24 13 E 60 0,0
26.06.2019 15:00:00 32,7 18,1 9 5 22 12 ESE 60 0,0
26.06.2019 14:00:00 31,5 18,1 15 8 26 14 E 60 -
26.06.2019 13:00:00 30,3 17,4 13 7 24 13 E 60 0,0
26.06.2019 12:00:00 29,1 17,0 16 9 35 19 ESE 60 0,0
26.06.2019 11:00:00 26,7 16,6 28 15 44 24 ESE 60 0,0
26.06.2019 10:00:00 25,0 15,6 34 18 44 24 ESE 60 0,0
26.06.2019 09:00:00 23,4 15,7 34 18 46 25 ESE 60 0,0
26.06.2019 08:00:00 22,8 14,9 29 16 42 23 ESE 60 -
26.06.2019 07:00:00 23,6 14,0 34 18 46 25 ESE 36 0,0
26.06.2019 06:00:00 22,3 15,2 26 14 35 19 ESE 0 0,0
26.06.2019 05:00:00 22,1 15,4 22 12 37 20 SE 0 0,0
26.06.2019 04:00:00 22,5 16,5 24 13 29 16 ESE 0 0,0
26.06.2019 03:00:00 23,0 17,2 21 11 26 14 ESE 0 0,0
26.06.2019 02:00:00 23,6 18,0 21 11 28 15 E 0 -
26.06.2019 01:00:00 23,6 17,8 16 9 24 13 E 0 0,0
26.06.2019 00:00:00 24,2 17,4 18 10 24 13 E 0 0,0
25.06.2019 23:00:00 25,2 16,3 18 10 24 13 E 0 0,0
25.06.2019 22:00:00 25,7 16,5 18 10 22 12 E 0 0,0
25.06.2019 21:00:00 25,9 17,5 18 10 22 12 E 36 0,0
25.06.2019 20:00:00 27,0 18,0 13 7 22 12 E 48 -
25.06.2019 19:00:00 27,4 17,8 11 6 18 10 E 30 0,0
25.06.2019 18:00:00 28,6 18,1 11 6 18 10 ESE 18 0,0
25.06.2019 17:00:00 28,9 16,8 8 4 16 9 ESE 36 0,0
25.06.2019 16:00:00 29,3 15,4 11 6 22 12 SE 30 0,0
25.06.2019 15:00:00 28,9 14,3 15 8 26 14 SE 48 0,0
25.06.2019 14:00:00 28,4 16,0 13 7 26 14 ESE 42 -
25.06.2019 13:00:00 28,5 15,8 13 7 28 15 SE 54 0,0
25.06.2019 12:00:00 27,4 13,7 13 7 22 12 SSE 60 0,0
25.06.2019 11:00:00 25,7 13,5 9 5 18 10 S 36 0,0
25.06.2019 10:00:00 24,1 12,7 13 7 29 16 S 18 0,0
25.06.2019 09:00:00 24,0 11,3 21 11 35 19 S 42 0,0
25.06.2019 08:00:00 22,4 11,5 18 10 28 15 SSE 48 -
25.06.2019 07:00:00 21,4 11,4 18 10 26 14 SSE 42 0,0
25.06.2019 06:00:00 20,7 11,6 18 10 29 16 S 0 0,0
25.06.2019 05:00:00 21,5 12,1 21 11 37 20 SSE 0 0,0
25.06.2019 04:00:00 21,9 13,3 24 13 37 20 SSE 0 0,0
25.06.2019 03:00:00 22,7 14,3 16 9 28 15 SSE 0 0,0
25.06.2019 02:00:00 23,6 13,7 21 11 29 16 SSE 0 -
25.06.2019 01:00:00 23,4 14,9 16 9 24 13 SSE 0 0,0
25.06.2019 00:00:00 23,1 16,6 15 8 26 14 SE 0 0,0
24.06.2019 23:00:00 23,3 16,8 21 11 28 15 ESE 0 0,0
24.06.2019 22:00:00 23,5 16,5 22 12 29 16 ESE 0 0,0
24.06.2019 21:00:00 23,8 15,6 22 12 31 17 E 0 0,0
24.06.2019 20:00:00 25,0 16,2 22 12 31 17 E 54 -
24.06.2019 19:00:00 25,3 15,3 24 13 37 20 E 6 0,0
24.06.2019 18:00:00 26,4 15,4 24 13 41 22 ESE 36 0,0
24.06.2019 17:00:00 25,9 15,6 26 14 42 23 E 6 0,0
24.06.2019 16:00:00 26,1 16,1 26 14 42 23 E 18 0,0
24.06.2019 15:00:00 26,9 16,2 26 14 46 25 E 60 0,0
24.06.2019 14:00:00 26,9 17,4 22 12 34 18 E 60 -
24.06.2019 13:00:00 26,1 18,2 21 11 34 18 E 60 0,0
24.06.2019 12:00:00 25,5 18,7 16 9 29 16 ESE 60 0,0
24.06.2019 11:00:00 24,2 17,9 15 8 28 15 E 60 0,0
24.06.2019 10:00:00 23,5 17,7 16 9 26 14 ESE 60 0,0
24.06.2019 09:00:00 21,3 17,3 13 7 26 14 E 60 0,0
24.06.2019 08:00:00 21,2 15,5 13 7 21 11 E 48 -
24.06.2019 07:00:00 19,2 15,3 13 7 21 11 E 36 0,0
24.06.2019 06:00:00 18,7 15,2 15 8 18 10 E 0 0,0
24.06.2019 05:00:00 20,0 13,9 11 6 16 9 ESE 0 0,0
24.06.2019 04:00:00 20,0 14,1 11 6 21 11 E 0 0,0
24.06.2019 03:00:00 20,0 14,1 16 9 22 12 ESE 0 0,0
24.06.2019 02:00:00 20,0 14,1 15 8 22 12 ESE 0 -
24.06.2019 01:00:00 20,4 14,1 16 9 24 13 ESE 0 0,0
24.06.2019 00:00:00 20,7 14,1 18 10 22 12 ESE 0 0,0
23.06.2019 23:00:00 20,7 14,6 16 9 24 13 ESE 0 0,0
23.06.2019 22:00:00 21,0 15,3 16 9 22 12 E 0 0,0
23.06.2019 21:00:00 21,6 15,4 18 10 22 12 E 30 0,0
23.06.2019 20:00:00 23,2 15,3 16 9 28 15 ESE 60 -
23.06.2019 19:00:00 23,1 15,2 16 9 24 13 E 0 0,0
23.06.2019 18:00:00 23,1 14,4 18 10 24 13 E 0 0,0
23.06.2019 17:00:00 23,5 14,5 16 9 29 16 E 30 0,0
23.06.2019 16:00:00 24,6 16,3 16 9 29 16 E 60 0,0
23.06.2019 15:00:00 24,5 15,4 11 6 26 14 ESE 54 0,0
23.06.2019 14:00:00 24,0 15,0 15 8 35 19 ESE 60 -
23.06.2019 13:00:00 22,7 15,8 16 9 28 15 E 60 0,0
23.06.2019 12:00:00 21,6 16,8 13 7 28 15 E 60 0,0
23.06.2019 11:00:00 19,7 16,2 16 9 26 14 ENE 60 0,0
23.06.2019 10:00:00 19,2 15,3 13 7 22 12 E 60 0,0
23.06.2019 09:00:00 17,6 15,0 18 10 31 17 E 60 0,0
23.06.2019 08:00:00 15,0 13,7 24 13 34 18 ENE 60 -
23.06.2019 07:00:00 14,5 13,4 18 10 24 13 ENE 48 0,2
23.06.2019 06:00:00 13,8 13,0 13 7 21 11 E 0 0,0
23.06.2019 05:00:00 13,9 12,9 11 6 16 9 E 0 0,0
23.06.2019 04:00:00 14,2 12,4 9 5 15 8 ENE 0 0,0
23.06.2019 03:00:00 14,1 12,7 5 3 11 6 ENE 0 0,0
23.06.2019 02:00:00 13,9 12,8 5 3 11 6 ESE 0 -
23.06.2019 01:00:00 14,2 12,9 5 3 15 8 E 0 0,0
23.06.2019 00:00:00 13,8 12,4 11 6 15 8 ENE 0 0,0
22.06.2019 23:00:00 14,2 12,2 4 2 11 6 ENE 0 0,0
22.06.2019 22:00:00 14,1 12,8 4 2 9 5 NNE 0 0,0
22.06.2019 21:00:00 15,9 13,4 4 2 9 5 NNE 36 0,0
22.06.2019 20:00:00 17,3 13,6 4 2 16 9 N 42 -
22.06.2019 19:00:00 17,9 13,8 5 3 15 8 WNW 36 0,0
22.06.2019 18:00:00 16,2 14,7 5 3 16 9 NNE 6 0,0
22.06.2019 17:00:00 15,4 13,9 4 2 22 12 N 6 0,0
22.06.2019 16:00:00 16,8 15,0 9 5 26 14 WNW 6 0,0
22.06.2019 15:00:00 16,0 14,0 15 8 31 17 WNW 0 0,0
22.06.2019 14:00:00 15,0 13,9 13 7 26 14 W 6 -
22.06.2019 13:00:00 14,4 13,6 11 6 22 12 WNW 0 0,0
22.06.2019 12:00:00 13,9 13,4 13 7 26 14 WNW 0 0,0
22.06.2019 11:00:00 13,9 13,4 11 6 26 14 WNW 6 0,0
22.06.2019 10:00:00 14,0 14,0 5 3 24 13 NW 12 0,2
22.06.2019 09:00:00 12,1 12,1 9 5 15 8 WNW 0 0,2
22.06.2019 08:00:00 11,7 11,4 8 4 22 12 W 0 -
22.06.2019 07:00:00 11,2 11,0 11 6 22 12 NNE 0 2,0
22.06.2019 06:00:00 10,9 10,9 11 6 37 20 N 0 4,0
22.06.2019 05:00:00 10,9 10,9 16 9 39 21 N 0 3,0
22.06.2019 04:00:00 11,3 11,0 13 7 29 16 NNE 0 4,0
22.06.2019 03:00:00 12,1 11,6 8 4 24 13 WNW 0 5,0
22.06.2019 02:00:00 12,7 11,4 15 8 34 18 W 0 -
22.06.2019 01:00:00 14,1 11,4 11 6 34 18 N 0 0,0
22.06.2019 00:00:00 14,5 12,0 11 6 41 22 N 0 0,0
21.06.2019 23:00:00 15,5 12,1 11 6 35 19 N 0 0,0
21.06.2019 22:00:00 16,2 11,8 16 9 39 21 NNE 0 0,0
21.06.2019 21:00:00 16,7 12,4 18 10 34 18 ENE 0 0,0
21.06.2019 20:00:00 17,7 12,8 13 7 28 15 ENE 0 -
21.06.2019 19:00:00 18,2 12,6 9 5 18 10 NE 0 0,0
21.06.2019 18:00:00 18,0 12,7 9 5 22 12 NE 0 0,0
21.06.2019 17:00:00 18,6 12,8 11 6 21 11 ENE 0 0,0
21.06.2019 16:00:00 19,2 14,2 5 3 22 12 NE 0 0,0
21.06.2019 15:00:00 19,6 12,6 8 4 24 13 NNE 0 0,0
21.06.2019 14:00:00 19,8 12,1 8 4 26 14 NNE 6 -
21.06.2019 13:00:00 22,2 13,3 8 4 26 14 N 48 0,0
21.06.2019 12:00:00 18,9 11,9 11 6 29 16 NE 18 0,0
21.06.2019 11:00:00 18,5 11,6 18 10 37 20 NE 60 0,0
21.06.2019 10:00:00 17,5 12,6 16 9 37 20 NE 36 0,0
21.06.2019 09:00:00 14,7 11,7 24 13 39 21 NE 0 0,0
21.06.2019 08:00:00 14,5 12,4 13 7 35 19 NE 0 -
21.06.2019 07:00:00 14,1 12,0 16 9 37 20 NE 0 0,0
21.06.2019 06:00:00 14,0 12,0 18 10 34 18 NE 0 0,0
21.06.2019 05:00:00 14,0 11,9 18 10 34 18 NE 0 0,0
21.06.2019 04:00:00 13,9 11,8 21 11 29 16 ENE 0 0,0
21.06.2019 03:00:00 14,5 12,4 18 10 29 16 ENE 0 0,0
21.06.2019 02:00:00 15,2 12,0 15 8 26 14 ENE 0 -
21.06.2019 01:00:00 15,5 12,1 13 7 21 11 NE 0 0,0
21.06.2019 00:00:00 15,9 12,3 8 4 21 11 N 0 0,0
20.06.2019 23:00:00 16,1 12,5 8 4 15 8 N 0 0,0
20.06.2019 22:00:00 16,6 12,5 2 1 13 7 NNW 0 0,0
20.06.2019 21:00:00 17,8 12,7 4 2 15 8 NW 0 0,0
20.06.2019 20:00:00 19,1 12,4 4 2 22 12 NNW 24 -
20.06.2019 19:00:00 21,0 13,4 8 4 22 12 WNW 18 0,0

tt = Température de l'air
td = dewpoint
ff = Vitesse du vent
fx = gusts
dd = Direction du vent
sd = Ensoleillement
rr = Quantités de précipitations

stations d'obs. à proximité